createdAt,value
2023-03-22T00:00:17.247Z,1004.84
2023-03-22T00:00:42.040Z,1004.84
2023-03-22T00:01:13.536Z,1004.84
2023-03-22T00:01:45.579Z,1004.91
2023-03-22T00:02:17.577Z,1004.91
2023-03-22T00:02:49.051Z,1004.74
2023-03-22T00:03:21.778Z,1004.74
2023-03-22T00:03:53.320Z,1004.74
2023-03-22T00:04:16.102Z,1004.74
2023-03-22T00:04:38.856Z,1004.74
2023-03-22T00:05:13.380Z,1004.74
2023-03-22T00:05:45.309Z,1004.74
2023-03-22T00:06:17.780Z,1004.74
2023-03-22T00:06:49.099Z,1004.91
2023-03-22T00:07:21.360Z,1004.91
2023-03-22T00:07:53.352Z,1004.84
2023-03-22T00:08:16.208Z,1005.01
2023-03-22T00:08:38.443Z,1005.01
2023-03-22T00:09:13.613Z,1005.01
2023-03-22T00:09:45.381Z,1004.84
2023-03-22T00:10:17.337Z,1004.84
2023-03-22T00:10:49.054Z,1004.84
2023-03-22T00:11:21.486Z,1004.84
2023-03-22T00:11:53.331Z,1004.84
2023-03-22T00:12:16.276Z,1004.91
2023-03-22T00:12:38.608Z,1004.91
2023-03-22T00:13:13.640Z,1004.91
2023-03-22T00:13:45.461Z,1004.91
2023-03-22T00:14:17.273Z,1004.91
2023-03-22T00:14:48.973Z,1004.84
2023-03-22T00:15:21.662Z,1004.84
2023-03-22T00:15:53.585Z,1004.91
2023-03-22T00:16:17.130Z,1004.84
2023-03-22T00:16:39.548Z,1004.84
2023-03-22T00:17:13.674Z,1004.84
2023-03-22T00:17:45.447Z,1004.91
2023-03-22T00:18:17.391Z,1004.91
2023-03-22T00:18:48.979Z,1004.74
2023-03-22T00:19:21.341Z,1004.74
2023-03-22T00:19:54.396Z,1004.91
2023-03-22T00:20:20.763Z,1004.84
2023-03-22T00:20:39.641Z,1004.84
2023-03-22T00:21:13.680Z,1004.84
2023-03-22T00:21:45.274Z,1004.74
2023-03-22T00:22:17.453Z,1004.74
2023-03-22T00:22:48.968Z,1004.74
2023-03-22T00:23:21.384Z,1004.74
2023-03-22T00:23:53.333Z,1004.84
2023-03-22T00:24:16.630Z,1004.74
2023-03-22T00:24:38.885Z,1004.74
2023-03-22T00:25:13.470Z,1004.74
2023-03-22T00:25:45.488Z,1004.91
2023-03-22T00:26:17.339Z,1004.91
2023-03-22T00:26:49.015Z,1004.84
2023-03-22T00:27:21.610Z,1004.84
2023-03-22T00:27:53.408Z,1004.64
2023-03-22T00:28:16.051Z,1004.84
2023-03-22T00:28:38.954Z,1004.84
2023-03-22T00:29:13.645Z,1004.84
2023-03-22T00:29:45.428Z,1004.91
2023-03-22T00:30:17.503Z,1004.91
2023-03-22T00:30:48.926Z,1004.44
2023-03-22T00:31:21.565Z,1004.44
2023-03-22T00:31:53.871Z,1004.84
2023-03-22T00:32:17.195Z,1004.74
2023-03-22T00:32:39.382Z,1004.74
2023-03-22T00:33:13.275Z,1004.74
2023-03-22T00:33:45.263Z,1004.64
2023-03-22T00:34:17.323Z,1004.64
2023-03-22T00:34:49.011Z,1004.84
2023-03-22T00:35:21.650Z,1004.84
2023-03-22T00:35:53.370Z,1004.84
2023-03-22T00:36:16.627Z,1004.64
2023-03-22T00:36:38.727Z,1004.64
2023-03-22T00:37:13.557Z,1004.64
2023-03-22T00:37:45.473Z,1004.84
2023-03-22T00:38:17.749Z,1004.84
2023-03-22T00:38:49.175Z,1004.84
2023-03-22T00:39:21.510Z,1004.84
2023-03-22T00:39:53.349Z,1004.64
2023-03-22T00:40:17.902Z,1004.64
2023-03-22T00:40:38.948Z,1004.64
2023-03-22T00:41:13.450Z,1004.64
2023-03-22T00:41:45.501Z,1004.64
2023-03-22T00:42:18.791Z,1004.64
2023-03-22T00:42:48.928Z,1004.54
2023-03-22T00:43:21.422Z,1004.54
2023-03-22T00:43:53.296Z,1004.74
2023-03-22T00:44:16.262Z,1004.74
2023-03-22T00:44:38.563Z,1004.74
2023-03-22T00:45:13.551Z,1004.74
2023-03-22T00:45:45.472Z,1004.84
2023-03-22T00:46:17.467Z,1004.84
2023-03-22T00:46:48.951Z,1004.74
2023-03-22T00:47:21.393Z,1004.74
2023-03-22T00:47:53.445Z,1004.54
2023-03-22T00:48:17.336Z,1004.64
2023-03-22T00:48:39.010Z,1004.64
2023-03-22T00:49:13.630Z,1004.64
2023-03-22T00:49:45.481Z,1004.54
2023-03-22T00:50:17.355Z,1004.54
2023-03-22T00:50:49.180Z,1004.74
2023-03-22T00:51:21.393Z,1004.74
2023-03-22T00:51:53.424Z,1004.74
2023-03-22T00:52:15.941Z,1004.64
2023-03-22T00:52:38.410Z,1004.64
2023-03-22T00:53:13.452Z,1004.64
2023-03-22T00:53:45.563Z,1004.64
2023-03-22T00:54:17.403Z,1004.64
2023-03-22T00:54:49.038Z,1004.64
2023-03-22T00:55:21.376Z,1004.64
2023-03-22T00:55:53.592Z,1004.54
2023-03-22T00:56:16.766Z,1004.64
2023-03-22T00:56:39.136Z,1004.64
2023-03-22T00:57:13.343Z,1004.64
2023-03-22T00:57:45.909Z,1004.64
2023-03-22T00:58:17.391Z,1004.64
2023-03-22T00:58:49.231Z,1004.44
2023-03-22T00:59:21.641Z,1004.44
2023-03-22T00:59:53.557Z,1004.33
2023-03-22T01:00:17.775Z,1004.54
2023-03-22T01:00:40.444Z,1004.54
2023-03-22T01:01:13.511Z,1004.54
2023-03-22T01:01:45.469Z,1004.84
2023-03-22T01:02:17.406Z,1004.84
2023-03-22T01:02:49.056Z,1004.64
2023-03-22T01:03:21.289Z,1004.64
2023-03-22T01:03:53.521Z,1004.44
2023-03-22T01:04:16.716Z,1004.33
2023-03-22T01:04:39.226Z,1004.33
2023-03-22T01:05:13.431Z,1004.33
2023-03-22T01:05:45.404Z,1004.44
2023-03-22T01:06:17.766Z,1004.44
2023-03-22T01:06:49.035Z,1004.44
2023-03-22T01:07:21.373Z,1004.44
2023-03-22T01:07:53.333Z,1004.44
2023-03-22T01:08:16.517Z,1004.54
2023-03-22T01:08:39.320Z,1004.54
2023-03-22T01:09:13.403Z,1004.54
2023-03-22T01:09:45.474Z,1004.54
2023-03-22T01:10:17.427Z,1004.54
2023-03-22T01:10:49.044Z,1004.44
2023-03-22T01:11:21.560Z,1004.44
2023-03-22T01:11:53.404Z,1004.44
2023-03-22T01:12:17.566Z,1004.33
2023-03-22T01:12:39.947Z,1004.33
2023-03-22T01:13:13.436Z,1004.33
2023-03-22T01:13:50.784Z,1004.33
2023-03-22T01:14:17.551Z,1004.33
2023-03-22T01:14:48.998Z,1004.54
2023-03-22T01:15:21.468Z,1004.54
2023-03-22T01:15:53.482Z,1004.23
2023-03-22T01:16:16.805Z,1004.13
2023-03-22T01:16:39.083Z,1004.13
2023-03-22T01:17:13.298Z,1004.13
2023-03-22T01:17:45.414Z,1004.23
2023-03-22T01:18:17.300Z,1004.23
2023-03-22T01:18:48.902Z,1004.23
2023-03-22T01:19:21.189Z,1004.23
2023-03-22T01:19:53.801Z,1004.33
2023-03-22T01:20:16.958Z,1004.33
2023-03-22T01:20:39.620Z,1004.33
2023-03-22T01:21:13.999Z,1004.33
2023-03-22T01:21:45.399Z,1004.33
2023-03-22T01:22:17.422Z,1004.33
2023-03-22T01:22:49.118Z,1004.23
2023-03-22T01:23:21.871Z,1004.23
2023-03-22T01:23:53.609Z,1004.33
2023-03-22T01:24:16.506Z,1004.33
2023-03-22T01:24:39.015Z,1004.33
2023-03-22T01:25:13.847Z,1004.33
2023-03-22T01:25:45.329Z,1004.44
2023-03-22T01:26:17.813Z,1004.44
2023-03-22T01:26:49.304Z,1004.03
2023-03-22T01:27:21.599Z,1004.03
2023-03-22T01:27:53.321Z,1004.44
2023-03-22T01:28:17.284Z,1004.03
2023-03-22T01:28:39.587Z,1004.03
2023-03-22T01:29:13.185Z,1004.03
2023-03-22T01:29:45.766Z,1004.33
2023-03-22T01:30:17.484Z,1004.33
2023-03-22T01:30:49.002Z,1004.23
2023-03-22T01:31:21.642Z,1004.23
2023-03-22T01:31:53.455Z,1004.23
2023-03-22T01:32:16.742Z,1004.03
2023-03-22T01:32:39.045Z,1004.03
2023-03-22T01:33:14.225Z,1004.03
2023-03-22T01:33:45.405Z,1004.23
2023-03-22T01:34:17.500Z,1004.23
2023-03-22T01:34:49.036Z,1004.33
2023-03-22T01:35:21.362Z,1004.33
2023-03-22T01:35:54.020Z,1004.23
2023-03-22T01:36:16.318Z,1004.23
2023-03-22T01:36:38.669Z,1004.23
2023-03-22T01:37:13.494Z,1004.23
2023-03-22T01:37:45.329Z,1004.33
2023-03-22T01:38:17.561Z,1004.33
2023-03-22T01:38:49.237Z,1004.03
2023-03-22T01:39:21.324Z,1004.03
2023-03-22T01:39:53.186Z,1004.13
2023-03-22T01:40:18.874Z,1004.23
2023-03-22T01:40:38.604Z,1004.23
2023-03-22T01:41:14.160Z,1004.23
2023-03-22T01:41:45.570Z,1004.13
2023-03-22T01:42:18.682Z,1004.13
2023-03-22T01:42:49.354Z,1004.03
2023-03-22T01:43:21.541Z,1004.03
2023-03-22T01:43:53.420Z,1003.93
2023-03-22T01:44:16.479Z,1003.93
2023-03-22T01:44:38.785Z,1003.93
2023-03-22T01:45:14.907Z,1003.93
2023-03-22T01:45:45.708Z,1004.13
2023-03-22T01:46:17.833Z,1004.13
2023-03-22T01:46:48.967Z,1004.13
2023-03-22T01:47:21.402Z,1004.13
2023-03-22T01:47:53.274Z,1004.13
2023-03-22T01:48:16.112Z,1004.23
2023-03-22T01:48:38.504Z,1004.23
2023-03-22T01:49:16.395Z,1004.23
2023-03-22T01:49:45.296Z,1004.03
2023-03-22T01:50:17.278Z,1004.03
2023-03-22T01:50:51.838Z,1004.13
2023-03-22T01:51:21.592Z,1004.13
2023-03-22T01:51:53.311Z,1003.93
2023-03-22T01:52:16.777Z,1004.03
2023-03-22T01:52:38.975Z,1004.03
2023-03-22T01:53:13.292Z,1004.03
2023-03-22T01:53:45.591Z,1003.93
2023-03-22T01:54:17.741Z,1003.93
2023-03-22T01:54:49.171Z,1004.03
2023-03-22T01:55:21.354Z,1004.03
2023-03-22T01:55:53.331Z,1003.83
2023-03-22T01:56:17.255Z,1004.03
2023-03-22T01:56:38.357Z,1004.03
2023-03-22T01:57:13.481Z,1004.03
2023-03-22T01:57:45.291Z,1003.93
2023-03-22T01:58:17.879Z,1003.93
2023-03-22T01:58:48.988Z,1003.83
2023-03-22T01:59:21.311Z,1003.83
2023-03-22T01:59:53.312Z,1003.93
2023-03-22T02:00:17.804Z,1003.83
2023-03-22T02:00:39.920Z,1003.83
2023-03-22T02:01:21.038Z,1003.83
2023-03-22T02:01:43.997Z,1003.83
2023-03-22T02:02:18.332Z,1003.83
2023-03-22T02:02:49.852Z,1004.03
2023-03-22T02:03:21.590Z,1004.03
2023-03-22T02:03:55.002Z,1003.72
2023-03-22T02:04:18.872Z,1003.83
2023-03-22T02:04:38.981Z,1003.83
2023-03-22T02:05:14.993Z,1003.93
2023-03-22T02:05:45.526Z,1003.93
2023-03-22T02:06:19.284Z,1003.93
2023-03-22T02:06:49.073Z,1004.03
2023-03-22T02:07:21.889Z,1004.03
2023-03-22T02:07:53.190Z,1004.13
2023-03-22T02:08:16.047Z,1004.03
2023-03-22T02:08:38.579Z,1004.03
2023-03-22T02:09:13.282Z,1004.03
2023-03-22T02:09:45.404Z,1003.83
2023-03-22T02:10:19.824Z,1003.83
2023-03-22T02:10:49.670Z,1003.93
2023-03-22T02:11:21.293Z,1003.93
2023-03-22T02:11:53.414Z,1003.83
2023-03-22T02:12:16.075Z,1003.72
2023-03-22T02:12:38.777Z,1003.72
2023-03-22T02:13:13.825Z,1003.72
2023-03-22T02:13:45.323Z,1003.83
2023-03-22T02:14:20.541Z,1003.83
2023-03-22T02:14:49.184Z,1003.93
2023-03-22T02:15:21.397Z,1003.93
2023-03-22T02:15:53.241Z,1003.93
2023-03-22T02:16:16.215Z,1003.83
2023-03-22T02:16:39.827Z,1003.83
2023-03-22T02:17:14.024Z,1003.83
2023-03-22T02:17:45.414Z,1003.72
2023-03-22T02:18:17.444Z,1003.72
2023-03-22T02:18:49.693Z,1003.83
2023-03-22T02:19:21.766Z,1003.83
2023-03-22T02:19:54.244Z,1003.72
2023-03-22T02:20:16.864Z,1003.83
2023-03-22T02:20:39.654Z,1003.83
2023-03-22T02:21:14.020Z,1003.83
2023-03-22T02:21:45.388Z,1003.83
2023-03-22T02:22:17.494Z,1003.83
2023-03-22T02:22:50.147Z,1003.93
2023-03-22T02:23:22.238Z,1003.93
2023-03-22T02:23:53.447Z,1003.93
2023-03-22T02:24:16.494Z,1003.83
2023-03-22T02:24:38.859Z,1003.83
2023-03-22T02:25:13.980Z,1003.83
2023-03-22T02:25:46.033Z,1003.93
2023-03-22T02:26:17.815Z,1003.93
2023-03-22T02:26:50.053Z,1003.62
2023-03-22T02:27:23.516Z,1003.62
2023-03-22T02:27:54.391Z,1003.93
2023-03-22T02:28:18.007Z,1003.52
2023-03-22T02:28:39.275Z,1003.52
2023-03-22T02:29:13.558Z,1003.52
2023-03-22T02:29:45.625Z,1003.52
2023-03-22T02:30:17.701Z,1003.52
2023-03-22T02:30:49.196Z,1003.83
2023-03-22T02:31:24.001Z,1003.83
2023-03-22T02:31:53.276Z,1003.72
2023-03-22T02:32:16.133Z,1003.72
2023-03-22T02:32:40.162Z,1003.72
2023-03-22T02:33:13.501Z,1003.72
2023-03-22T02:33:45.481Z,1003.62
2023-03-22T02:34:17.426Z,1003.62
2023-03-22T02:34:49.607Z,1003.62
2023-03-22T02:35:21.264Z,1003.62
2023-03-22T02:35:54.653Z,1003.72
2023-03-22T02:36:16.270Z,1003.72
2023-03-22T02:36:39.310Z,1003.72
2023-03-22T02:37:14.515Z,1003.72
2023-03-22T02:37:45.650Z,1003.83
2023-03-22T02:38:17.911Z,1003.83
2023-03-22T02:38:49.186Z,1003.62
2023-03-22T02:39:22.148Z,1003.62
2023-03-22T02:39:53.264Z,1003.72
2023-03-22T02:40:16.891Z,1003.62
2023-03-22T02:40:38.901Z,1003.62
2023-03-22T02:41:13.511Z,1003.62
2023-03-22T02:41:45.904Z,1003.83
2023-03-22T02:42:18.827Z,1003.83
2023-03-22T02:42:50.043Z,1003.62
2023-03-22T02:43:21.542Z,1003.62
2023-03-22T02:43:53.252Z,1003.72
2023-03-22T02:44:16.088Z,1003.83
2023-03-22T02:44:38.622Z,1003.83
2023-03-22T02:45:13.594Z,1003.83
2023-03-22T02:45:46.013Z,1003.42
2023-03-22T02:46:17.462Z,1003.42
2023-03-22T02:46:49.085Z,1003.52
2023-03-22T02:47:21.719Z,1003.52
2023-03-22T02:47:53.405Z,1003.62
2023-03-22T02:48:16.190Z,1003.62
2023-03-22T02:48:38.782Z,1003.62
2023-03-22T02:49:13.621Z,1003.62
2023-03-22T02:49:45.510Z,1003.62
2023-03-22T02:50:17.732Z,1003.62
2023-03-22T02:50:50.078Z,1003.62
2023-03-22T02:51:21.548Z,1003.62
2023-03-22T02:51:55.532Z,1003.52
2023-03-22T02:52:18.154Z,1003.52
2023-03-22T02:52:40.882Z,1003.52
2023-03-22T02:53:13.733Z,1003.52
2023-03-22T02:53:45.823Z,1003.42
2023-03-22T02:54:18.360Z,1003.42
2023-03-22T02:54:49.258Z,1003.62
2023-03-22T02:55:22.160Z,1003.62
2023-03-22T02:55:53.723Z,1003.62
2023-03-22T02:56:16.480Z,1003.52
2023-03-22T02:56:39.498Z,1003.52
2023-03-22T02:57:13.412Z,1003.52
2023-03-22T02:57:45.364Z,1003.42
2023-03-22T02:58:17.232Z,1003.42
2023-03-22T02:58:49.863Z,1003.42
2023-03-22T02:59:21.328Z,1003.42
2023-03-22T02:59:54.450Z,1003.62
2023-03-22T03:00:40.612Z,1003.52
2023-03-22T03:01:14.145Z,1003.52
2023-03-22T03:01:52.973Z,1003.32
2023-03-22T03:02:15.180Z,1003.32
2023-03-22T03:02:49.490Z,1003.22
2023-03-22T03:03:21.407Z,1003.22
2023-03-22T03:04:19.178Z,1003.52
2023-03-22T03:04:40.083Z,1003.52
2023-03-22T03:05:13.515Z,1003.52
2023-03-22T03:05:45.538Z,1003.42
2023-03-22T03:06:17.215Z,1003.42
2023-03-22T03:06:48.962Z,1003.32
2023-03-22T03:07:21.145Z,1003.32
2023-03-22T03:07:53.300Z,1003.32
2023-03-22T03:08:16.154Z,1003.32
2023-03-22T03:08:38.551Z,1003.32
2023-03-22T03:09:13.266Z,1003.32
2023-03-22T03:09:45.349Z,1003.22
2023-03-22T03:10:12.677Z,1003.22
2023-03-22T03:10:50.358Z,1003.42
2023-03-22T03:11:21.180Z,1003.42
2023-03-22T03:11:53.471Z,1003.22
2023-03-22T03:12:16.427Z,1003.42
2023-03-22T03:12:38.850Z,1003.42
2023-03-22T03:13:13.472Z,1003.42
2023-03-22T03:13:45.467Z,1003.32
2023-03-22T03:14:17.389Z,1003.32
2023-03-22T03:14:49.186Z,1003.42
2023-03-22T03:15:21.538Z,1003.42
2023-03-22T03:15:53.318Z,1003.32
2023-03-22T03:16:16.271Z,1003.42
2023-03-22T03:16:39.109Z,1003.42
2023-03-22T03:17:13.914Z,1003.42
2023-03-22T03:17:45.999Z,1003.42
2023-03-22T03:18:17.297Z,1003.42
2023-03-22T03:18:49.477Z,1003.42
2023-03-22T03:19:21.492Z,1003.42
2023-03-22T03:19:53.710Z,1003.11
2023-03-22T03:20:16.246Z,1003.22
2023-03-22T03:20:40.017Z,1003.22
2023-03-22T03:21:13.446Z,1003.22
2023-03-22T03:21:45.302Z,1003.22
2023-03-22T03:22:17.228Z,1003.22
2023-03-22T03:22:49.697Z,1003.42
2023-03-22T03:23:22.248Z,1003.42
2023-03-22T03:23:53.846Z,1003.32
2023-03-22T03:24:16.783Z,1003.32
2023-03-22T03:24:39.877Z,1003.32
2023-03-22T03:25:13.293Z,1003.32
2023-03-22T03:25:46.671Z,1003.22
2023-03-22T03:26:17.829Z,1003.22
2023-03-22T03:26:51.886Z,1003.42
2023-03-22T03:27:21.582Z,1003.42
2023-03-22T03:27:54.630Z,1003.22
2023-03-22T03:28:17.355Z,1003.11
2023-03-22T03:28:39.977Z,1003.11
2023-03-22T03:29:14.558Z,1003.11
2023-03-22T03:29:46.049Z,1003.22
2023-03-22T03:30:17.465Z,1003.22
2023-03-22T03:30:50.979Z,1003.22
2023-03-22T03:31:22.218Z,1003.22
2023-03-22T03:31:53.722Z,1003.22
2023-03-22T03:32:16.292Z,1003.22
2023-03-22T03:32:39.566Z,1003.22
2023-03-22T03:33:13.489Z,1003.22
2023-03-22T03:33:45.393Z,1003.42
2023-03-22T03:34:17.607Z,1003.42
2023-03-22T03:34:49.190Z,1003.42
2023-03-22T03:35:21.584Z,1003.42
2023-03-22T03:35:55.769Z,1003.22
2023-03-22T03:36:17.007Z,1003.32
2023-03-22T03:36:40.332Z,1003.32
2023-03-22T03:37:14.002Z,1003.32
2023-03-22T03:37:45.395Z,1003.22
2023-03-22T03:38:22.108Z,1003.22
2023-03-22T03:38:44.472Z,1003.22
2023-03-22T03:39:21.576Z,1003.22
2023-03-22T03:39:53.434Z,1003.22
2023-03-22T03:40:16.323Z,1003.22
2023-03-22T03:40:38.882Z,1003.22
2023-03-22T03:41:13.408Z,1003.22
2023-03-22T03:41:45.277Z,1003.32
2023-03-22T03:42:17.108Z,1003.32
2023-03-22T03:42:49.001Z,1003.32
2023-03-22T03:43:21.274Z,1003.32
2023-03-22T03:43:53.298Z,1003.32
2023-03-22T03:44:16.437Z,1003.22
2023-03-22T03:44:39.174Z,1003.22
2023-03-22T03:45:13.423Z,1003.22
2023-03-22T03:45:45.626Z,1003.32
2023-03-22T03:46:17.421Z,1003.32
2023-03-22T03:46:49.297Z,1003.11
2023-03-22T03:47:21.321Z,1003.11
2023-03-22T03:47:53.255Z,1003.22
2023-03-22T03:48:19.063Z,1003.11
2023-03-22T03:48:57.324Z,1003.11
2023-03-22T03:49:20.000Z,1003.22
2023-03-22T03:49:42.539Z,1003.22
2023-03-22T03:50:17.316Z,1003.22
2023-03-22T03:50:49.241Z,1003.22
2023-03-22T03:51:21.141Z,1003.22
2023-03-22T03:51:53.122Z,1003.11
2023-03-22T03:52:15.991Z,1003.01
2023-03-22T03:52:38.386Z,1003.01
2023-03-22T03:53:13.623Z,1003.01
2023-03-22T03:53:45.560Z,1003.11
2023-03-22T03:54:17.455Z,1003.11
2023-03-22T03:54:49.012Z,1003.01
2023-03-22T03:55:21.404Z,1003.01
2023-03-22T03:55:53.141Z,1003.32
2023-03-22T03:56:15.683Z,1003.22
2023-03-22T03:56:38.103Z,1003.22
2023-03-22T03:57:13.365Z,1003.22
2023-03-22T03:57:45.125Z,1003.22
2023-03-22T03:58:17.196Z,1003.22
2023-03-22T03:58:49.027Z,1003.11
2023-03-22T03:59:21.205Z,1003.11
2023-03-22T03:59:53.516Z,1003.22
2023-03-22T04:00:16.447Z,1003.32
2023-03-22T04:00:39.193Z,1003.32
2023-03-22T04:01:13.239Z,1003.32
2023-03-22T04:01:45.380Z,1003.11
2023-03-22T04:02:17.317Z,1003.11
2023-03-22T04:02:49.193Z,1002.91
2023-03-22T04:03:21.237Z,1002.91
2023-03-22T04:03:53.538Z,1003.11
2023-03-22T04:04:16.254Z,1003.01
2023-03-22T04:04:39.142Z,1003.01
2023-03-22T04:05:13.484Z,1003.01
2023-03-22T04:05:45.280Z,1003.11
2023-03-22T04:06:17.738Z,1003.11
2023-03-22T04:06:49.108Z,1003.11
2023-03-22T04:07:21.201Z,1003.11
2023-03-22T04:07:53.212Z,1003.22
2023-03-22T04:08:16.361Z,1003.01
2023-03-22T04:08:39.870Z,1003.01
2023-03-22T04:09:13.260Z,1003.01
2023-03-22T04:09:45.235Z,1003.11
2023-03-22T04:10:17.367Z,1003.11
2023-03-22T04:10:49.416Z,1003.01
2023-03-22T04:11:21.403Z,1003.01
2023-03-22T04:11:53.224Z,1003.32
2023-03-22T04:12:15.852Z,1002.91
2023-03-22T04:12:40.278Z,1002.91
2023-03-22T04:13:13.187Z,1002.91
2023-03-22T04:13:46.210Z,1003.11
2023-03-22T04:14:17.086Z,1003.11
2023-03-22T04:14:49.070Z,1003.32
2023-03-22T04:15:21.259Z,1003.32
2023-03-22T04:15:53.269Z,1003.01
2023-03-22T04:16:16.248Z,1003.22
2023-03-22T04:16:41.145Z,1003.22
2023-03-22T04:17:13.213Z,1003.22
2023-03-22T04:17:45.452Z,1003.01
2023-03-22T04:18:17.493Z,1003.01
2023-03-22T04:18:49.085Z,1003.01
2023-03-22T04:19:21.174Z,1003.01
2023-03-22T04:19:53.234Z,1003.01
2023-03-22T04:20:17.974Z,1003.22
2023-03-22T04:20:42.075Z,1003.22
2023-03-22T04:21:14.752Z,1003.22
2023-03-22T04:21:45.374Z,1003.22
2023-03-22T04:22:17.766Z,1003.22
2023-03-22T04:22:49.695Z,1003.11
2023-03-22T04:23:21.432Z,1003.11
2023-03-22T04:23:53.719Z,1003.01
2023-03-22T04:24:16.793Z,1002.91
2023-03-22T04:24:39.075Z,1002.91
2023-03-22T04:25:13.383Z,1002.91
2023-03-22T04:25:47.041Z,1003.22
2023-03-22T04:26:17.559Z,1003.22
2023-03-22T04:26:49.776Z,1003.11
2023-03-22T04:27:21.391Z,1003.11
2023-03-22T04:27:54.398Z,1003.01
2023-03-22T04:28:17.265Z,1003.01
2023-03-22T04:28:39.600Z,1003.01
2023-03-22T04:29:14.260Z,1003.01
2023-03-22T04:29:45.962Z,1003.01
2023-03-22T04:30:17.719Z,1003.01
2023-03-22T04:30:49.359Z,1003.22
2023-03-22T04:31:22.271Z,1003.22
2023-03-22T04:31:53.773Z,1003.01
2023-03-22T04:32:16.573Z,1003.11
2023-03-22T04:32:40.624Z,1003.11
2023-03-22T04:33:13.821Z,1003.11
2023-03-22T04:33:46.443Z,1003.11
2023-03-22T04:34:17.610Z,1003.11
2023-03-22T04:34:49.490Z,1003.32
2023-03-22T04:35:21.731Z,1003.32
2023-03-22T04:35:54.529Z,1003.22
2023-03-22T04:36:17.565Z,1003.11
2023-03-22T04:36:39.757Z,1003.11
2023-03-22T04:37:13.898Z,1003.11
2023-03-22T04:37:45.813Z,1003.11
2023-03-22T04:38:17.644Z,1003.11
2023-03-22T04:38:49.413Z,1002.91
2023-03-22T04:39:25.446Z,1003.11
2023-03-22T04:39:53.703Z,1003.11
2023-03-22T04:40:16.374Z,1003.01
2023-03-22T04:40:39.509Z,1003.01
2023-03-22T04:41:14.590Z,1003.01
2023-03-22T04:41:45.505Z,1003.01
2023-03-22T04:42:18.683Z,1003.01
2023-03-22T04:42:49.888Z,1003.11
2023-03-22T04:43:21.321Z,1003.11
2023-03-22T04:43:53.294Z,1003.11
2023-03-22T04:44:16.008Z,1002.91
2023-03-22T04:44:38.405Z,1002.91
2023-03-22T04:45:13.408Z,1002.91
2023-03-22T04:45:45.952Z,1002.91
2023-03-22T04:46:19.077Z,1003.01
2023-03-22T04:46:49.247Z,1003.01
2023-03-22T04:47:21.280Z,1003.01
2023-03-22T04:47:57.464Z,1002.91
2023-03-22T04:48:17.913Z,1002.81
2023-03-22T04:48:40.648Z,1002.81
2023-03-22T04:49:13.332Z,1002.81
2023-03-22T04:49:47.153Z,1003.01
2023-03-22T04:50:17.281Z,1003.01
2023-03-22T04:50:52.201Z,1003.01
2023-03-22T04:51:21.075Z,1003.01
2023-03-22T04:51:54.732Z,1002.81
2023-03-22T04:52:17.554Z,1002.91
2023-03-22T04:52:40.012Z,1002.91
2023-03-22T04:53:13.451Z,1002.91
2023-03-22T04:53:47.523Z,1002.71
2023-03-22T04:54:17.493Z,1002.71
2023-03-22T04:54:49.232Z,1003.11
2023-03-22T04:55:21.895Z,1003.11
2023-03-22T04:55:53.155Z,1003.11
2023-03-22T04:56:20.660Z,1002.81
2023-03-22T04:56:57.370Z,1002.81
2023-03-22T04:57:20.299Z,1002.91
2023-03-22T04:57:42.742Z,1002.91
2023-03-22T04:58:17.247Z,1002.91
2023-03-22T04:58:49.244Z,1002.81
2023-03-22T04:59:21.284Z,1002.81
2023-03-22T04:59:53.210Z,1003.01
2023-03-22T05:00:16.515Z,1003.01
2023-03-22T05:00:39.485Z,1003.01
2023-03-22T05:01:13.203Z,1003.01
2023-03-22T05:01:45.631Z,1003.11
2023-03-22T05:02:17.086Z,1003.11
2023-03-22T05:02:49.735Z,1003.01
2023-03-22T05:03:21.326Z,1003.01
2023-03-22T05:03:53.617Z,1002.81
2023-03-22T05:04:16.675Z,1002.91
2023-03-22T05:04:39.205Z,1002.91
2023-03-22T05:05:14.684Z,1002.91
2023-03-22T05:05:45.198Z,1002.81
2023-03-22T05:06:17.214Z,1002.81
2023-03-22T05:06:50.397Z,1002.91
2023-03-22T05:07:21.340Z,1002.91
2023-03-22T05:07:54.174Z,1003.32
2023-03-22T05:08:16.379Z,1003.01
2023-03-22T05:08:38.583Z,1003.01
2023-03-22T05:09:13.192Z,1003.01
2023-03-22T05:09:45.098Z,1003.11
2023-03-22T05:10:17.340Z,1003.11
2023-03-22T05:10:51.397Z,1002.71
2023-03-22T05:11:21.216Z,1002.71
2023-03-22T05:11:53.083Z,1003.11
2023-03-22T05:12:16.080Z,1002.91
2023-03-22T05:12:38.251Z,1002.91
2023-03-22T05:13:13.271Z,1002.91
2023-03-22T05:13:45.434Z,1002.91
2023-03-22T05:14:17.166Z,1002.91
2023-03-22T05:14:52.094Z,1002.91
2023-03-22T05:15:21.370Z,1002.91
2023-03-22T05:15:53.377Z,1002.91
2023-03-22T05:16:16.745Z,1002.91
2023-03-22T05:16:39.207Z,1002.91
2023-03-22T05:17:13.300Z,1002.91
2023-03-22T05:17:45.420Z,1002.91
2023-03-22T05:18:17.072Z,1002.91
2023-03-22T05:18:52.506Z,1003.01
2023-03-22T05:19:21.165Z,1003.01
2023-03-22T05:19:54.053Z,1002.81
2023-03-22T05:20:16.426Z,1002.81
2023-03-22T05:20:39.177Z,1002.81
2023-03-22T05:21:13.049Z,1002.81
2023-03-22T05:21:45.080Z,1002.81
2023-03-22T05:22:17.621Z,1002.81
2023-03-22T05:22:49.505Z,1002.71
2023-03-22T05:23:21.429Z,1002.71
2023-03-22T05:23:54.121Z,1002.81
2023-03-22T05:24:22.335Z,1002.81
2023-03-22T05:24:58.103Z,1002.81
2023-03-22T05:25:24.018Z,1002.91
2023-03-22T05:25:44.177Z,1002.91
2023-03-22T05:26:18.119Z,1002.91
2023-03-22T05:26:50.366Z,1003.01
2023-03-22T05:27:21.523Z,1003.01
2023-03-22T05:27:55.103Z,1002.81
2023-03-22T05:28:16.626Z,1002.81
2023-03-22T05:28:39.175Z,1002.81
2023-03-22T05:29:14.917Z,1002.81
2023-03-22T05:29:45.878Z,1002.81
2023-03-22T05:30:18.168Z,1002.81
2023-03-22T05:30:49.911Z,1002.71
2023-03-22T05:31:21.324Z,1002.71
2023-03-22T05:31:55.853Z,1002.81
2023-03-22T05:32:16.212Z,1002.91
2023-03-22T05:32:39.432Z,1002.91
2023-03-22T05:33:13.710Z,1002.91
2023-03-22T05:33:46.294Z,1002.91
2023-03-22T05:34:17.817Z,1002.91
2023-03-22T05:34:49.532Z,1002.71
2023-03-22T05:35:21.845Z,1002.71
2023-03-22T05:35:57.366Z,1002.81
2023-03-22T05:36:16.850Z,1002.81
2023-03-22T05:36:39.402Z,1002.81
2023-03-22T05:37:13.872Z,1002.81
2023-03-22T05:37:45.762Z,1002.71
2023-03-22T05:38:17.610Z,1002.71
2023-03-22T05:38:49.336Z,1002.91
2023-03-22T05:39:22.656Z,1002.91
2023-03-22T05:39:53.478Z,1002.91
2023-03-22T05:40:17.621Z,1002.71
2023-03-22T05:40:39.506Z,1002.71
2023-03-22T05:41:22.609Z,1002.64
2023-03-22T05:41:43.682Z,1002.64
2023-03-22T05:42:11.717Z,1002.64
2023-03-22T05:42:58.027Z,1002.71
2023-03-22T05:43:18.365Z,1002.71
2023-03-22T05:43:49.107Z,1002.91
2023-03-22T05:44:21.213Z,1002.81
2023-03-22T05:44:58.848Z,1002.81
2023-03-22T05:45:20.072Z,1002.64
2023-03-22T05:45:43.520Z,1002.64
2023-03-22T05:46:17.982Z,1002.64
2023-03-22T05:46:49.843Z,1002.81
2023-03-22T05:47:21.305Z,1002.81
2023-03-22T05:47:53.313Z,1002.71
2023-03-22T05:48:16.088Z,1002.71
2023-03-22T05:48:39.786Z,1002.71
2023-03-22T05:49:14.674Z,1002.71
2023-03-22T05:49:45.630Z,1002.54
2023-03-22T05:50:17.171Z,1002.54
2023-03-22T05:50:51.689Z,1002.81
2023-03-22T05:51:21.245Z,1002.81
2023-03-22T05:51:54.326Z,1002.81
2023-03-22T05:52:17.068Z,1002.81
2023-03-22T05:52:39.378Z,1002.81
2023-03-22T05:53:13.275Z,1002.81
2023-03-22T05:53:45.263Z,1002.71
2023-03-22T05:54:17.899Z,1002.71
2023-03-22T05:54:49.867Z,1002.71
2023-03-22T05:55:22.197Z,1002.71
2023-03-22T05:55:53.229Z,1002.64
2023-03-22T05:56:16.085Z,1002.64
2023-03-22T05:56:38.588Z,1002.64
2023-03-22T05:57:13.240Z,1002.64
2023-03-22T05:57:45.399Z,1002.71
2023-03-22T05:58:17.326Z,1002.71
2023-03-22T05:58:49.403Z,1002.81
2023-03-22T05:59:21.992Z,1002.81
2023-03-22T05:59:55.308Z,1002.64
2023-03-22T06:00:17.874Z,1002.64
2023-03-22T06:00:40.941Z,1002.64
2023-03-22T06:01:13.441Z,1002.64
2023-03-22T06:01:45.813Z,1002.64
2023-03-22T06:02:17.508Z,1002.64
2023-03-22T06:02:49.321Z,1002.64
2023-03-22T06:03:21.527Z,1002.64
2023-03-22T06:03:53.274Z,1002.71